モントリオール/トルドー の空港の天気 - METARとTAF

モントリオール・ピエール・エリオット・トルドー国際空港 ( CYUL / YUL ) - カナダ ケベック州モントリオール
飛行場実況気象(Metar)
観測時間10/20 13:25 EDT (10/20 17:25 UTC)
風向・風速西南西 11m/s 瞬間風速17m/s
視程10km以上
天気現象弱いしゅう雨
少しの雲 雲底高度 1220m
全天の8割程度の雲 雲底高度 1680m
全天の8割程度の雲 雲底高度 2070m
気温13℃
湿度51%
気圧998hPa
METARCYUL 201725Z 24021G33KT 15SM -SHRA FEW040 BKN055 BKN068 13/03 A2946 RMK CF1SC4AC2 CVCTV CLD EMBD SLP980 DENSITY ALT 400FT
過去の天気等 Google飛行場航空写真 Wunderground天気予報

過去48時間のMETAR

飛行場予報(TAF)
発表時間: 10/20 13:38 EDT (10/20 17:38 UTC)
予報対象時間: 20日14時 EDT ~ 21日14時 EDT
風向・風速西南西 11m/s 瞬間風速 18m/s
視程10km以上
全天の8割程度の雲 雲底高度 1220m
20日14時 EDT ~ 20日18時 EDT に一時的に
視程10km以上
天気現象弱いしゅう雨
20日16時 EDT ~ 20日18時 EDT に徐々に
風向・風速西 8m/s 瞬間風速 13m/s
20日22時 EDT から
風向・風速西北西 6m/s
視程10km以上
全天の4割程度の雲 雲底高度 1220m
21日12時 EDT から
風向・風速西 8m/s 瞬間風速 13m/s
視程10km以上
全天の8割程度の雲 雲底高度 1220m
TAF CYUL 201738Z 2018/2118 25022G35KT P6SM BKN040
TEMPO 2018/2022 P6SM -SHRA
BECMG 2020/2022 27015G25KT
FM210200 29012KT P6SM SCT040
FM211600 28015G25KT P6SM BKN040 RMK NXT FCST BY 202100Z